createdAt,value
2023-05-09T00:01:13.008Z,6.55
2023-05-09T00:03:40.255Z,6.55
2023-05-09T00:06:07.632Z,6.54
2023-05-09T00:08:34.438Z,6.53
2023-05-09T00:11:01.992Z,6.55
2023-05-09T00:13:28.844Z,6.58
2023-05-09T00:15:57.254Z,6.60
2023-05-09T00:18:24.205Z,6.62
2023-05-09T00:20:50.911Z,6.64
2023-05-09T00:23:17.989Z,6.66
2023-05-09T00:25:44.903Z,6.66
2023-05-09T00:28:11.754Z,6.65
2023-05-09T00:30:38.494Z,6.63
2023-05-09T00:33:05.364Z,6.64
2023-05-09T00:35:32.580Z,6.65
2023-05-09T00:37:59.730Z,6.67
2023-05-09T00:40:26.575Z,6.68
2023-05-09T00:42:53.443Z,6.72
2023-05-09T00:45:20.262Z,6.74
2023-05-09T00:47:47.148Z,6.76
2023-05-09T00:50:14.046Z,6.79
2023-05-09T00:52:40.784Z,6.82
2023-05-09T00:55:08.378Z,6.84
2023-05-09T00:57:36.010Z,6.87
2023-05-09T01:00:04.608Z,6.89
2023-05-09T01:02:32.385Z,6.91
2023-05-09T01:04:59.250Z,6.92
2023-05-09T01:07:30.017Z,6.93
2023-05-09T01:10:03.083Z,6.94
2023-05-09T01:12:33.007Z,6.96
2023-05-09T01:15:16.713Z,6.97
2023-05-09T01:17:53.067Z,6.97
2023-05-09T01:20:24.065Z,6.98
2023-05-09T01:23:13.132Z,6.99
2023-05-09T01:25:55.808Z,7.00
2023-05-09T01:28:40.876Z,7.01
2023-05-09T01:31:08.165Z,7.00
2023-05-09T01:33:36.803Z,6.98
2023-05-09T01:36:05.390Z,6.99
2023-05-09T01:38:32.132Z,7.01
2023-05-09T01:40:59.895Z,7.01
2023-05-09T01:43:27.997Z,7.02
2023-05-09T01:45:55.248Z,7.02
2023-05-09T01:48:22.278Z,7.01
2023-05-09T01:50:49.352Z,7.00
2023-05-09T01:53:16.771Z,6.99
2023-05-09T01:55:44.144Z,6.98
2023-05-09T01:58:12.728Z,6.97
2023-05-09T02:00:39.533Z,6.95
2023-05-09T02:03:06.354Z,6.93
2023-05-09T02:05:33.287Z,6.91
2023-05-09T02:08:01.344Z,6.90
2023-05-09T02:10:28.386Z,6.88
2023-05-09T02:12:55.260Z,6.85
2023-05-09T02:15:22.588Z,6.81
2023-05-09T02:17:50.689Z,6.79
2023-05-09T02:20:17.600Z,6.74
2023-05-09T02:22:44.444Z,6.68
2023-05-09T02:25:14.327Z,6.63
2023-05-09T02:27:41.526Z,6.57
2023-05-09T02:30:10.087Z,6.52
2023-05-09T02:32:37.383Z,6.46
2023-05-09T02:35:04.738Z,6.39
2023-05-09T02:37:31.657Z,6.31
2023-05-09T02:39:58.442Z,6.27
2023-05-09T02:42:26.377Z,6.23
2023-05-09T02:44:53.837Z,6.20
2023-05-09T02:47:20.987Z,6.18
2023-05-09T02:49:48.042Z,6.15
2023-05-09T02:52:15.404Z,6.13
2023-05-09T02:54:42.135Z,6.12
2023-05-09T02:57:09.170Z,6.10
2023-05-09T02:59:36.017Z,6.06
2023-05-09T03:02:03.272Z,6.03
2023-05-09T03:04:30.657Z,6.01
2023-05-09T03:06:57.576Z,6.01
2023-05-09T03:09:26.728Z,6.01
2023-05-09T03:11:55.265Z,6.03
2023-05-09T03:14:22.059Z,6.07
2023-05-09T03:16:48.909Z,6.10
2023-05-09T03:19:22.845Z,6.13
2023-05-09T03:21:49.613Z,6.18
2023-05-09T03:24:16.862Z,6.21
2023-05-09T03:26:43.731Z,6.22
2023-05-09T03:29:10.892Z,6.23
2023-05-09T03:31:38.236Z,6.25
2023-05-09T03:34:05.946Z,6.25
2023-05-09T03:36:33.138Z,6.21
2023-05-09T03:39:00.049Z,6.17
2023-05-09T03:41:27.187Z,6.14
2023-05-09T03:43:54.351Z,6.09
2023-05-09T03:46:21.196Z,6.03
2023-05-09T03:48:48.357Z,5.98
2023-05-09T03:51:15.922Z,5.93
2023-05-09T03:53:45.689Z,5.90
2023-05-09T03:56:12.695Z,5.86
2023-05-09T03:58:45.393Z,5.83
2023-05-09T04:01:13.176Z,5.83
2023-05-09T04:03:40.717Z,5.87
2023-05-09T04:06:11.533Z,5.92
2023-05-09T04:08:40.806Z,5.99
2023-05-09T04:11:07.660Z,6.08
2023-05-09T04:13:35.135Z,6.19
2023-05-09T04:16:05.637Z,6.26
2023-05-09T04:18:32.783Z,6.35
2023-05-09T04:21:00.795Z,6.45
2023-05-09T04:23:27.760Z,6.56
2023-05-09T04:25:57.208Z,6.65
2023-05-09T04:28:25.280Z,6.76
2023-05-09T04:30:52.310Z,6.86
2023-05-09T04:33:19.559Z,6.96
2023-05-09T04:35:46.618Z,7.13
2023-05-09T04:38:13.896Z,7.33
2023-05-09T04:40:41.038Z,7.53
2023-05-09T04:43:08.078Z,7.81
2023-05-09T04:45:35.554Z,8.22
2023-05-09T04:48:02.451Z,8.52
2023-05-09T04:50:29.669Z,8.69
2023-05-09T04:52:56.412Z,8.80
2023-05-09T04:55:23.446Z,8.86
2023-05-09T04:57:50.732Z,8.93
2023-05-09T05:00:18.617Z,9.04
2023-05-09T05:02:47.245Z,9.13
2023-05-09T05:05:14.301Z,9.23
2023-05-09T05:07:42.956Z,9.29
2023-05-09T05:10:11.340Z,9.36
2023-05-09T05:12:38.785Z,9.39
2023-05-09T05:15:08.520Z,9.42
2023-05-09T05:17:35.633Z,9.45
2023-05-09T05:20:06.425Z,9.49
2023-05-09T05:22:33.366Z,9.50
2023-05-09T05:25:00.211Z,9.51
2023-05-09T05:27:27.438Z,9.53
2023-05-09T05:29:54.287Z,9.57
2023-05-09T05:32:21.031Z,9.58
2023-05-09T05:34:48.170Z,9.59
2023-05-09T05:37:15.217Z,9.59
2023-05-09T05:39:42.375Z,9.58
2023-05-09T05:44:20.496Z,9.69
2023-05-09T05:46:47.670Z,9.72
2023-05-09T05:49:14.718Z,9.82
2023-05-09T05:51:41.526Z,9.95
2023-05-09T05:54:08.561Z,10.10
2023-05-09T05:56:35.529Z,10.22
2023-05-09T05:59:02.284Z,10.32
2023-05-09T06:01:29.028Z,10.37
2023-05-09T06:03:57.901Z,10.46
2023-05-09T06:06:29.279Z,10.54
2023-05-09T06:08:56.424Z,10.64
2023-05-09T06:11:23.393Z,10.69
2023-05-09T06:13:50.103Z,10.72
2023-05-09T06:16:20.080Z,10.73
2023-05-09T06:18:49.359Z,10.74
2023-05-09T06:21:16.091Z,10.74
2023-05-09T06:23:57.754Z,10.74
2023-05-09T06:26:28.810Z,10.74
2023-05-09T06:28:56.147Z,10.79
2023-05-09T06:31:24.899Z,10.87
2023-05-09T06:33:52.940Z,11.00
2023-05-09T06:36:20.725Z,11.12
2023-05-09T06:38:47.598Z,11.23
2023-05-09T06:41:14.316Z,11.31
2023-05-09T06:43:41.391Z,11.40
2023-05-09T06:46:08.322Z,11.48
2023-05-09T06:48:35.183Z,11.55
2023-05-09T06:51:02.304Z,11.60
2023-05-09T06:53:29.045Z,11.62
2023-05-09T06:55:55.799Z,11.65
2023-05-09T06:58:23.356Z,11.68
2023-05-09T07:00:50.197Z,11.74
2023-05-09T07:03:17.108Z,11.83
2023-05-09T07:05:44.184Z,11.88
2023-05-09T07:08:10.985Z,11.91
2023-05-09T07:10:39.027Z,11.96
2023-05-09T07:13:06.334Z,12.06
2023-05-09T07:15:41.213Z,12.13
2023-05-09T07:18:09.333Z,12.10
2023-05-09T07:20:36.389Z,12.13
2023-05-09T07:23:04.192Z,12.22
2023-05-09T07:25:31.083Z,12.33
2023-05-09T07:27:58.540Z,12.42
2023-05-09T07:30:25.457Z,12.48
2023-05-09T07:32:52.362Z,12.52
2023-05-09T07:35:20.073Z,12.50
2023-05-09T07:37:46.904Z,12.48
2023-05-09T07:40:14.542Z,12.47
2023-05-09T07:42:45.109Z,12.42
2023-05-09T07:45:11.964Z,12.33
2023-05-09T07:47:38.957Z,12.27
2023-05-09T07:50:09.008Z,12.25
2023-05-09T07:52:36.338Z,12.26
2023-05-09T07:55:05.007Z,12.28
2023-05-09T07:57:36.400Z,12.33
2023-05-09T08:00:10.555Z,12.39
2023-05-09T08:02:45.960Z,12.47
2023-05-09T08:05:13.942Z,12.55
2023-05-09T08:07:40.950Z,12.65
2023-05-09T08:10:11.614Z,12.77
2023-05-09T08:12:38.724Z,12.93
2023-05-09T08:15:06.255Z,13.07
2023-05-09T08:17:33.076Z,13.19
2023-05-09T08:19:59.938Z,13.31
2023-05-09T08:22:26.667Z,13.43
2023-05-09T08:24:53.608Z,13.47
2023-05-09T08:27:20.335Z,13.46
2023-05-09T08:29:47.081Z,13.45
2023-05-09T08:32:14.293Z,13.46
2023-05-09T08:34:41.241Z,13.44
2023-05-09T08:37:08.516Z,13.43
2023-05-09T08:39:35.267Z,13.43
2023-05-09T08:42:02.525Z,13.41
2023-05-09T08:44:29.927Z,13.36
2023-05-09T08:46:59.625Z,13.30
2023-05-09T08:49:26.733Z,13.27
2023-05-09T08:51:53.780Z,13.19
2023-05-09T08:54:22.874Z,13.14
2023-05-09T08:56:50.377Z,13.15
2023-05-09T08:59:17.896Z,13.19
2023-05-09T09:01:44.756Z,13.25
2023-05-09T09:04:14.690Z,13.37
2023-05-09T09:06:41.716Z,13.49
2023-05-09T09:09:09.129Z,13.57
2023-05-09T09:11:36.474Z,13.69
2023-05-09T09:14:16.637Z,13.81
2023-05-09T09:16:44.591Z,13.92
2023-05-09T09:19:17.215Z,14.00
2023-05-09T09:21:45.550Z,14.11
2023-05-09T09:24:13.047Z,14.26
2023-05-09T09:26:47.956Z,14.43
2023-05-09T09:29:15.063Z,14.60
2023-05-09T09:31:47.061Z,14.71
2023-05-09T09:34:21.497Z,14.77
2023-05-09T09:36:48.642Z,14.77
2023-05-09T09:39:15.684Z,14.72
2023-05-09T09:41:43.858Z,14.65
2023-05-09T09:44:17.452Z,14.58
2023-05-09T09:46:48.552Z,14.53
2023-05-09T09:49:16.929Z,14.49
2023-05-09T09:51:44.493Z,14.42
2023-05-09T09:54:12.354Z,14.35
2023-05-09T09:56:43.862Z,14.33
2023-05-09T09:59:15.934Z,14.39
2023-05-09T10:02:07.052Z,14.37
2023-05-09T10:04:35.729Z,14.28
2023-05-09T10:07:05.091Z,14.17
2023-05-09T10:09:33.005Z,14.15
2023-05-09T10:12:04.379Z,14.17
2023-05-09T10:14:33.587Z,14.15
2023-05-09T10:17:03.304Z,14.13
2023-05-09T10:19:30.246Z,14.19
2023-05-09T10:21:58.537Z,14.32
2023-05-09T10:24:39.350Z,14.41
2023-05-09T10:27:12.971Z,14.50
2023-05-09T10:29:49.501Z,14.62
2023-05-09T10:32:20.577Z,14.77
2023-05-09T10:34:49.235Z,14.87
2023-05-09T10:37:16.171Z,14.97
2023-05-09T10:39:44.441Z,15.05
2023-05-09T10:42:11.218Z,15.13
2023-05-09T10:44:38.335Z,15.19
2023-05-09T10:47:05.266Z,15.26
2023-05-09T10:49:32.510Z,15.33
2023-05-09T10:52:00.934Z,15.29
2023-05-09T10:54:30.707Z,15.08
2023-05-09T10:56:58.042Z,14.85
2023-05-09T10:59:41.257Z,14.67
2023-05-09T11:02:12.904Z,14.51
2023-05-09T11:04:39.764Z,14.43
2023-05-09T11:07:26.796Z,14.43
2023-05-09T11:10:07.174Z,14.53
2023-05-09T11:12:33.928Z,14.66
2023-05-09T11:15:08.085Z,14.77
2023-05-09T11:17:38.330Z,14.92
2023-05-09T11:20:06.561Z,15.09
2023-05-09T11:22:44.354Z,15.29
2023-05-09T11:25:13.210Z,15.46
2023-05-09T11:27:42.382Z,15.53
2023-05-09T11:30:11.145Z,15.51
2023-05-09T11:32:55.619Z,15.49
2023-05-09T11:35:23.531Z,15.38
2023-05-09T11:38:04.502Z,15.22
2023-05-09T11:40:34.784Z,15.00
2023-05-09T11:43:02.015Z,14.83
2023-05-09T11:45:32.542Z,14.71
2023-05-09T11:48:00.526Z,14.62
2023-05-09T11:50:27.405Z,14.47
2023-05-09T11:52:55.072Z,14.39
2023-05-09T11:55:22.887Z,14.37
2023-05-09T11:57:51.728Z,14.39
2023-05-09T12:00:25.776Z,14.48
2023-05-09T12:02:53.114Z,14.50
2023-05-09T12:05:21.432Z,14.47
2023-05-09T12:07:48.464Z,14.49
2023-05-09T12:10:16.627Z,14.54
2023-05-09T12:12:45.429Z,14.50
2023-05-09T12:15:13.969Z,14.36
2023-05-09T12:17:42.866Z,14.20
2023-05-09T12:20:09.979Z,14.15
2023-05-09T12:22:39.631Z,14.18
2023-05-09T12:25:08.388Z,14.27
2023-05-09T12:27:35.644Z,14.40
2023-05-09T12:30:03.926Z,14.54
2023-05-09T12:32:33.044Z,14.64
2023-05-09T12:35:00.302Z,14.73
2023-05-09T12:37:27.216Z,14.76
2023-05-09T12:40:05.001Z,14.75
2023-05-09T12:42:32.700Z,14.76
2023-05-09T12:44:59.654Z,14.79
2023-05-09T12:47:28.878Z,14.79
2023-05-09T12:49:59.573Z,14.71
2023-05-09T12:52:34.552Z,14.67
2023-05-09T12:55:09.103Z,14.64
2023-05-09T12:57:36.134Z,14.61
2023-05-09T13:00:04.750Z,14.55
2023-05-09T13:02:40.000Z,14.47
2023-05-09T13:05:11.216Z,14.41
2023-05-09T13:07:49.710Z,14.35
2023-05-09T13:10:23.680Z,14.39
2023-05-09T13:12:51.542Z,14.49
2023-05-09T13:15:20.584Z,14.58
2023-05-09T13:17:48.196Z,14.71
2023-05-09T13:20:15.347Z,14.85
2023-05-09T13:22:43.948Z,14.98
2023-05-09T13:25:11.303Z,15.12
2023-05-09T13:27:38.138Z,15.25
2023-05-09T13:30:07.763Z,15.36
2023-05-09T13:32:35.067Z,15.43
2023-05-09T13:35:02.256Z,15.49
2023-05-09T13:37:29.278Z,15.55
2023-05-09T13:39:56.008Z,15.50
2023-05-09T13:42:22.755Z,15.44
2023-05-09T13:44:49.482Z,15.45
2023-05-09T13:47:16.237Z,15.47
2023-05-09T13:49:42.965Z,15.41
2023-05-09T13:52:09.924Z,15.30
2023-05-09T13:54:37.079Z,15.14
2023-05-09T13:57:04.638Z,15.02
2023-05-09T13:59:31.993Z,14.91
2023-05-09T14:02:00.121Z,14.84
2023-05-09T14:04:27.840Z,14.79
2023-05-09T14:06:55.201Z,14.72
2023-05-09T14:09:22.653Z,14.63
2023-05-09T14:11:51.739Z,14.50
2023-05-09T14:14:22.381Z,14.37
2023-05-09T14:16:49.444Z,14.26
2023-05-09T14:19:16.490Z,14.21
2023-05-09T14:21:43.848Z,14.19
2023-05-09T14:24:14.264Z,14.17
2023-05-09T14:26:42.807Z,14.15
2023-05-09T14:29:09.712Z,14.19
2023-05-09T14:31:36.994Z,14.27
2023-05-09T14:34:05.282Z,14.37
2023-05-09T14:36:35.065Z,14.49
2023-05-09T14:39:02.455Z,14.55
2023-05-09T14:41:29.190Z,14.55
2023-05-09T14:43:56.238Z,14.56
2023-05-09T14:46:26.477Z,14.57
2023-05-09T14:48:53.969Z,14.51
2023-05-09T14:51:21.921Z,14.43
2023-05-09T14:53:49.716Z,14.34
2023-05-09T14:56:18.226Z,14.26
2023-05-09T14:58:45.183Z,14.26
2023-05-09T15:01:11.972Z,14.25
2023-05-09T15:03:39.654Z,14.18
2023-05-09T15:06:07.027Z,14.06
2023-05-09T15:08:35.569Z,13.94
2023-05-09T15:11:02.480Z,13.80
2023-05-09T15:13:29.447Z,13.68
2023-05-09T15:15:57.198Z,13.62
2023-05-09T15:18:28.618Z,13.58
2023-05-09T15:20:56.021Z,13.57
2023-05-09T15:23:23.120Z,13.56
2023-05-09T15:25:50.011Z,13.60
2023-05-09T15:28:16.775Z,13.71
2023-05-09T15:30:45.380Z,13.90
2023-05-09T15:33:13.309Z,14.07
2023-05-09T15:35:40.273Z,14.24
2023-05-09T15:38:07.915Z,14.39
2023-05-09T15:40:34.773Z,14.48
2023-05-09T15:43:07.984Z,14.54
2023-05-09T15:45:38.816Z,14.54
2023-05-09T15:48:05.838Z,14.47
2023-05-09T15:50:32.904Z,14.39
2023-05-09T15:52:59.729Z,14.28
2023-05-09T15:55:28.608Z,14.18
2023-05-09T15:57:55.601Z,14.08
2023-05-09T16:00:22.785Z,13.98
2023-05-09T16:02:50.304Z,13.88
2023-05-09T16:05:17.641Z,13.78
2023-05-09T16:07:46.027Z,13.68
2023-05-09T16:10:13.639Z,13.56
2023-05-09T16:12:40.705Z,13.46
2023-05-09T16:15:08.496Z,13.35
2023-05-09T16:17:35.342Z,13.25
2023-05-09T16:20:02.363Z,13.16
2023-05-09T16:22:29.242Z,13.07
2023-05-09T16:24:56.349Z,12.99
2023-05-09T16:27:23.074Z,12.95
2023-05-09T16:29:50.132Z,12.91
2023-05-09T16:32:17.172Z,12.89
2023-05-09T16:34:43.918Z,12.88
2023-05-09T16:37:10.703Z,12.86
2023-05-09T16:39:37.614Z,12.84
2023-05-09T16:42:05.508Z,12.79
2023-05-09T16:44:32.373Z,12.68
2023-05-09T16:46:59.190Z,12.58
2023-05-09T16:49:26.246Z,12.53
2023-05-09T16:51:53.088Z,12.50
2023-05-09T16:54:20.023Z,12.46
2023-05-09T16:56:46.875Z,12.43
2023-05-09T16:59:13.635Z,12.40
2023-05-09T17:01:41.966Z,12.38
2023-05-09T17:04:08.847Z,12.36
2023-05-09T17:06:35.675Z,12.34
2023-05-09T17:09:02.449Z,12.30
2023-05-09T17:11:29.168Z,12.26
2023-05-09T17:13:56.016Z,12.21
2023-05-09T17:16:22.964Z,12.14
2023-05-09T17:18:49.713Z,12.07
2023-05-09T17:21:16.977Z,12.01
2023-05-09T17:23:44.103Z,11.94
2023-05-09T17:26:10.912Z,11.86
2023-05-09T17:28:37.768Z,11.77
2023-05-09T17:31:04.572Z,11.68
2023-05-09T17:33:31.495Z,11.58
2023-05-09T17:36:00.173Z,11.47
2023-05-09T17:38:27.063Z,11.36
2023-05-09T17:40:53.835Z,11.24
2023-05-09T17:43:21.874Z,11.12
2023-05-09T17:45:48.729Z,11.01
2023-05-09T17:48:16.057Z,10.88
2023-05-09T17:50:43.875Z,10.78
2023-05-09T17:53:10.687Z,10.67
2023-05-09T17:55:37.525Z,10.56
2023-05-09T17:58:04.272Z,10.47
2023-05-09T18:02:02.123Z,10.30
2023-05-09T18:04:31.081Z,10.16
2023-05-09T18:06:57.822Z,10.05
2023-05-09T18:09:24.660Z,9.91
2023-05-09T18:11:51.433Z,9.78
2023-05-09T18:14:18.552Z,9.65
2023-05-09T18:16:45.525Z,9.52
2023-05-09T18:19:12.883Z,9.39
2023-05-09T18:21:39.606Z,9.23
2023-05-09T18:24:09.127Z,9.09
2023-05-09T18:26:36.074Z,8.98
2023-05-09T18:29:03.100Z,8.89
2023-05-09T18:31:31.492Z,8.80
2023-05-09T18:33:58.549Z,8.71
2023-05-09T18:36:29.925Z,8.63
2023-05-09T18:38:56.650Z,8.55
2023-05-09T18:41:24.837Z,8.48
2023-05-09T18:43:51.788Z,8.42
2023-05-09T18:46:21.089Z,8.34
2023-05-09T18:48:52.461Z,8.25
2023-05-09T18:51:19.900Z,8.14
2023-05-09T18:53:47.508Z,8.03
2023-05-09T18:56:14.480Z,7.94
2023-05-09T18:58:41.506Z,7.88
2023-05-09T19:01:11.490Z,7.79
2023-05-09T19:03:45.788Z,7.70
2023-05-09T19:06:13.690Z,7.63
2023-05-09T19:08:41.668Z,7.55
2023-05-09T19:11:08.651Z,7.47
2023-05-09T19:13:38.410Z,7.42
2023-05-09T19:16:05.755Z,7.39
2023-05-09T19:18:33.055Z,7.35
2023-05-09T19:20:59.945Z,7.28
2023-05-09T19:23:27.079Z,7.21
2023-05-09T19:25:53.934Z,7.16
2023-05-09T19:28:22.423Z,7.11
2023-05-09T19:30:50.011Z,7.03
2023-05-09T19:33:17.036Z,6.97
2023-05-09T19:35:44.599Z,6.91
2023-05-09T19:38:12.192Z,6.85
2023-05-09T19:40:39.728Z,6.82
2023-05-09T19:43:06.663Z,6.78
2023-05-09T19:45:33.931Z,6.73
2023-05-09T19:48:00.783Z,6.68
2023-05-09T19:50:27.629Z,6.61
2023-05-09T19:52:54.469Z,6.54
2023-05-09T19:55:21.514Z,6.48
2023-05-09T19:57:48.409Z,6.43
2023-05-09T20:00:16.136Z,6.38
2023-05-09T20:02:43.220Z,6.33
2023-05-09T20:05:10.165Z,6.28
2023-05-09T20:07:36.934Z,6.24
2023-05-09T20:10:03.984Z,6.23
2023-05-09T20:12:30.750Z,6.21
2023-05-09T20:14:57.515Z,6.18
2023-05-09T20:17:24.293Z,6.14
2023-05-09T20:19:51.413Z,6.07
2023-05-09T20:22:18.174Z,6.02
2023-05-09T20:24:45.026Z,5.97
2023-05-09T20:27:12.992Z,5.90
2023-05-09T20:29:39.937Z,5.82
2023-05-09T20:32:06.764Z,5.75
2023-05-09T20:34:33.631Z,5.69
2023-05-09T20:37:01.016Z,5.63
2023-05-09T20:39:27.729Z,5.57
2023-05-09T20:41:55.836Z,5.54
2023-05-09T20:44:22.642Z,5.51
2023-05-09T20:46:49.490Z,5.49
2023-05-09T20:49:16.432Z,5.45
2023-05-09T20:51:43.284Z,5.39
2023-05-09T20:54:10.140Z,5.34
2023-05-09T20:56:36.977Z,5.30
2023-05-09T20:59:05.371Z,5.26
2023-05-09T21:01:35.548Z,5.24
2023-05-09T21:04:05.549Z,5.22
2023-05-09T21:06:33.136Z,5.18
2023-05-09T21:08:59.923Z,5.14
2023-05-09T21:11:26.674Z,5.10
2023-05-09T21:13:53.604Z,5.07
2023-05-09T21:16:20.378Z,5.04
2023-05-09T21:18:47.131Z,5.00
2023-05-09T21:21:13.930Z,4.95
2023-05-09T21:23:40.688Z,4.92
2023-05-09T21:26:07.523Z,4.89
2023-05-09T21:28:34.361Z,4.87
2023-05-09T21:31:01.684Z,4.84
2023-05-09T21:33:29.085Z,4.79
2023-05-09T21:35:56.142Z,4.72
2023-05-09T21:38:22.980Z,4.65
2023-05-09T21:40:51.252Z,4.60
2023-05-09T21:43:18.336Z,4.57
2023-05-09T21:45:45.717Z,4.51
2023-05-09T21:48:12.554Z,4.43
2023-05-09T21:50:39.486Z,4.33
2023-05-09T21:53:06.338Z,4.25
2023-05-09T21:55:33.276Z,4.17
2023-05-09T21:58:00.149Z,4.11
2023-05-09T22:00:26.867Z,4.07
2023-05-09T22:02:53.679Z,4.03
2023-05-09T22:05:20.655Z,4.00
2023-05-09T22:07:47.409Z,3.97
2023-05-09T22:10:14.354Z,3.95
2023-05-09T22:12:41.306Z,3.93
2023-05-09T22:15:08.858Z,3.90
2023-05-09T22:17:35.918Z,3.89
2023-05-09T22:20:02.854Z,3.90
2023-05-09T22:22:29.882Z,3.90
2023-05-09T22:24:56.830Z,3.89
2023-05-09T22:27:23.680Z,3.88
2023-05-09T22:29:50.521Z,3.88
2023-05-09T22:32:17.362Z,3.87
2023-05-09T22:34:47.387Z,3.86
2023-05-09T22:37:14.560Z,3.86
2023-05-09T22:39:43.552Z,3.84
2023-05-09T22:42:11.377Z,3.82
2023-05-09T22:44:39.182Z,3.80
2023-05-09T22:47:08.114Z,3.79
2023-05-09T22:49:35.630Z,3.76
2023-05-09T22:52:02.690Z,3.74
2023-05-09T22:54:29.532Z,3.71
2023-05-09T22:59:57.094Z,3.70
2023-05-09T23:02:24.099Z,3.66
2023-05-09T23:04:51.056Z,3.64
2023-05-09T23:07:18.014Z,3.63
2023-05-09T23:09:45.229Z,3.62
2023-05-09T23:12:12.092Z,3.60
2023-05-09T23:14:38.847Z,3.59
2023-05-09T23:17:05.660Z,3.55
2023-05-09T23:19:32.915Z,3.51
2023-05-09T23:21:59.754Z,3.46
2023-05-09T23:24:26.601Z,3.40
2023-05-09T23:26:53.862Z,3.36
2023-05-09T23:29:20.901Z,3.30
2023-05-09T23:31:48.232Z,3.22
2023-05-09T23:34:15.245Z,3.11
2023-05-09T23:36:42.040Z,3.00
2023-05-09T23:39:09.531Z,2.91
2023-05-09T23:41:36.436Z,2.85
2023-05-09T23:44:03.502Z,2.80
2023-05-09T23:46:30.674Z,2.75
2023-05-09T23:48:57.687Z,2.72
2023-05-09T23:51:24.519Z,2.72
2023-05-09T23:53:51.671Z,2.70
2023-05-09T23:56:18.388Z,2.70
2023-05-09T23:58:45.378Z,2.68
